MENDOCINO COUNTY AMOS NETWORK
                             Weekly Meteorological Summary
                        Station: Ukiah (Nelson Family Vineyards)

              Max         Min         Avg   Max   Min   Avg   Max       SolRad Daily  Daily   Seas         Hours Hours Mildew    Min
             Temp  Time  Temp  Time DewPt    RH    RH  Wind  Gust  Time    Cal   ETo Precip Precip   GDDs   Temp  Temp Stress    Bat
   Date         F Occur     F Occur     F     %     %   mph   mph Occur   /cm2    In     In     In  (50F) 70-85F  >95F    Pts  Volts
------------------------------------------------------------------------------------------------------------------------------------
  06/25/14   77.3  1329 -55.0   748  53.7    74    41   0.0   0.0     0     19 -7999   0.00   0.00   61.1    7.5   0.0      0   12.2
  06/26/14   78.6  1548  58.4   720  51.5    82    36   0.0   0.0     1     18  0.01   0.00   0.00   83.0    7.6   0.0      0   12.2
  06/27/14   81.7  1559  57.4   352  52.9    80    34   0.0   0.0     1     15  0.01   0.00   0.00   98.7   11.5   0.0     60   12.2
  06/28/14   85.9  1613  55.2   253  48.9    83    19   0.0   0.0     1     15  0.01   0.00   0.00   97.8    9.7   0.0     80   12.2
  06/29/14   96.4  1534  51.1   518  45.0    80    10   0.0   0.0     1     14  0.01   0.00   0.00  117.5    3.3   1.3     70   12.2
  06/30/14  105.0  1455  52.5   554  46.1    84     9   0.0   0.0     1     13  0.01   0.00   0.00  146.7    3.0   7.8     60   12.1
  07/01/14   91.5  1545  53.6   613  50.0    82    23   2.5  17.2  1535    322  0.15   0.84   0.84  117.8    3.0   0.0     50   12.2

                                                                                                                                        
   Avg/Tot   88.1        39.0        49.7    81    24   0.4   2.5           59 -7999   0.84        722.6   45.6   9.1    
   Maximum  105.0        58.4    
   Minimum   77.3       -55.0

====================================================================================================================================

                       MENDOCINO COUNTY AMOS NETWORK
                     Ukiah-Nelson - Hourly Observations

                              Dew   Wet  Wind   Max  Solar       Daily  Daily Daily
                 Temp    RH    Pt  Bulb Speed  Wind  Watts  Prec  Prec   MinT  MaxT
 Date     Time      F     %     F     F   mph  Gust    /m2    In Today      F     F
-----------------------------------------------------------------------------------
 07/02/14 1000   76.2    46  54.2  60.8   1.1   5.4    564  0.01  0.00   52.4  76.5
 07/02/14 0900   67.6    58  52.5  57.5   1.0   3.8    397  0.01  0.00   52.4  67.7
 07/02/14 0800   63.1    65  51.0  55.0   0.6   3.8    389  0.01  0.02   52.4  63.8
 07/02/14 0700   57.7    78  51.1  52.3   0.4   2.9     97  0.00  0.00   52.4  63.8
 07/02/14 0600   52.8    87  49.0  51.7   0.5   2.9      2  0.00  0.00   52.6  63.8
 07/02/14 0500   54.0    84  49.1  52.6   0.6   3.8      0  0.00  0.00   53.9  63.8
 07/02/14 0400   54.3    83  49.1  52.9   0.7   2.9      0  0.00  0.00   54.0  63.8
 07/02/14 0300   56.1    80  49.9  53.8   0.9   3.8      0  0.00  0.00   55.6  63.8
 07/02/14 0200   58.9    72  50.0  54.8   1.0   4.6      0  0.00  0.00   58.2  63.8
 07/02/14 0100   60.7    68  50.2  56.0   2.0   8.8      0  0.00  0.00   60.6  63.8
 07/02/14 0000   63.8    62  50.7  57.6   2.0   7.9      0  0.84  0.00   53.6  91.5
 07/01/14 2300   68.2    55  51.6  58.5   1.9   7.1      0  0.84  0.00   53.6  91.5
 07/01/14 2200   70.1    49  50.1  58.8   1.0   7.9      0  0.84  0.00   53.6  91.5
 07/01/14 2100   76.7    36  47.9  59.4   4.5  11.3      8  0.84  0.00   53.6  91.5
 07/01/14 2000   81.5    31  47.8  60.9   5.7  13.0     48  0.84  0.00   53.6  91.5
 07/01/14 1900   87.5    28  50.0  62.5   4.5  13.0    199  0.84  0.04   53.6  91.5
 07/01/14 1800   89.4    28  51.9  63.3   6.4  15.5    355  0.82  0.00   53.6  91.5
 07/01/14 1700   90.5    27  51.8  63.2   6.7  14.7    458  0.82  0.00   53.6  91.5
 07/01/14 1600   91.0    27  52.4  62.2   6.8  17.2    345  0.82  0.00   53.6  91.5
 07/01/14 1500   88.8    27  50.3  62.4   7.7  16.3    649  0.82  0.06   53.6  89.8
 07/01/14 1400   88.2    27  50.1  62.2   6.4  15.5    861  0.79  0.06   53.6  88.8
 07/01/14 1300   86.8    28  49.6  61.8   5.8  13.0    796  0.76  1.52   53.6  87.3
 07/01/14 1200   84.0    31  50.4  60.8   0.0   0.0     18  0.00  0.00   53.6  84.8
 07/01/14 1100   78.0    37  49.5  59.8   0.0   0.0      5  0.00  0.00   53.6  78.1
 07/01/14 1000   72.1    47  50.6  58.9   0.0   0.0      3  0.00  0.00   53.6  72.4
 07/01/14 0900   68.0    55  51.1  57.2   0.0   0.0      2  0.00  0.00   53.6  68.4
 07/01/14 0800   62.9    63  50.3  55.5   0.0   0.0      2  0.00  0.00   53.6  67.6
 07/01/14 0700   57.3    76  49.7  52.6   0.0   0.0      0  0.00  0.00   53.6  67.6
 07/01/14 0600   55.1    80  48.9  52.5   0.0   0.0      0  0.00  0.00   54.3  67.6
 07/01/14 0500   57.0    75  49.1  53.3   0.0   0.0      0  0.00  0.00   55.9  67.6
 07/01/14 0400   56.7    74  48.7  54.1   0.0   0.0      0  0.00  0.00   56.7  67.6
 07/01/14 0300   59.8    68  49.4  54.9   0.0   0.0      0  0.00  0.00   59.0  67.6
 07/01/14 0200   62.7    62  49.4  56.2   0.0   0.0      0  0.00  0.00   62.5  67.6
 07/01/14 0100   64.6    59  49.9  57.0   0.0   0.0      0  0.00  0.00   64.1  67.6
 07/01/14 0000   67.6    54  50.3  58.1   0.0   0.0      0  0.00  0.00   52.5 105.0
 06/30/14 2300   71.8    46  50.1  58.5   0.0   0.0      0  0.00  0.00   52.5 105.0
 06/30/14 2200   74.4    34  44.3  57.0   0.0   0.0      0  0.00  0.00   52.5 105.0
 06/30/14 2100   79.1    30  44.7  58.1   0.0   0.0      1  0.00  0.00   52.5 105.0
 06/30/14 2000   91.1    14  36.0  57.4   0.0   0.0      3  0.00  0.00   52.5 105.0
 06/30/14 1900   97.1    11  34.2  58.5   0.0   0.0      7  0.00  0.00   52.5 105.0
 06/30/14 1800  100.4    12  39.5  60.1   0.0   0.0     10  0.00  0.00   52.5 105.0
 06/30/14 1700  102.5    13  41.8  60.4   0.0   0.0     13  0.00  0.00   52.5 105.0
 06/30/14 1600  102.9    13  41.7  61.0   0.0   0.0     14  0.00  0.00   52.5 105.0
 06/30/14 1500  104.4    11  40.4  60.7   0.0   0.0     31  0.00  0.00   52.5 105.0
 06/30/14 1400  104.0    13  42.7  61.2   0.0   0.0     29  0.00  0.00   52.5 104.7
 06/30/14 1300  100.0    15  43.5  61.6   0.0   0.0     12  0.00  0.00   52.5 100.2
 06/30/14 1200   94.6    19  46.3  62.6   0.0   0.0     21  0.00  0.00   52.5  94.7
 06/30/14 1100   88.5    28  51.1  62.7   0.0   0.0      4  0.00  0.00   52.5  88.9
 06/30/14 1000   82.1    35  51.5  62.1   0.0   0.0      3  0.00  0.00   52.5  82.4
 06/30/14 0900   77.6    41  52.1  60.6   0.0   0.0      2  0.00  0.00   52.5  78.0
 06/30/14 0800   68.9    56  52.6  57.8   0.0   0.0      2  0.00  0.00   52.5  68.9
 06/30/14 0700   59.2    74  50.8  52.6   0.0   0.0      1  0.00  0.00   52.5  63.8
 06/30/14 0600   53.5    82  48.0  51.1   0.0   0.0      0  0.00  0.00   52.5  63.8
 06/30/14 0500   55.2    77  48.1  52.2   0.0   0.0      0  0.00  0.00   54.5  63.8
 06/30/14 0400   56.6    74  48.4  52.8   0.0   0.0      0  0.00  0.00   55.7  63.8
 06/30/14 0300   58.0    69  47.9  52.9   0.0   0.0      0  0.00  0.00   56.4  63.8
 06/30/14 0200   59.0    69  48.9  53.8   0.0   0.0      0  0.00  0.00   58.0  63.8
 06/30/14 0100   61.5    61  48.0  54.8   0.0   0.0      0  0.00  0.00   60.3  63.8
 06/30/14 0000   62.5    66  51.0  55.8   0.0   0.0      0  0.00  0.00   51.1  96.4
 06/29/14 2300   66.1    52  47.9  56.7   0.0   0.0      0  0.00  0.00   51.1  96.4
 06/29/14 2200   69.9    47  48.7  58.3   0.0   0.0      0  0.00  0.00   51.1  96.4
 06/29/14 2100   80.7    30  46.6  59.5   0.0   0.0      0  0.00  0.00   51.1  96.4
 06/29/14 2000   83.8    28  47.2  59.7   0.0   0.0      2  0.00  0.00   51.1  96.4
 06/29/14 1900   88.1    21  43.9  59.5   0.0   0.0      7  0.00  0.00   51.1  96.4
 06/29/14 1800   90.9    19  43.4  58.5   0.0   0.0     10  0.00  0.00   51.1  96.4
 06/29/14 1700   93.2    14  37.4  58.5   0.0   0.0     13  0.00  0.00   51.1  96.4
 06/29/14 1600   95.8    13  36.8  59.1   0.0   0.0     15  0.00  0.00   51.1  96.4
 06/29/14 1500   95.4    12  35.4  57.9   0.0   0.0     34  0.00  0.00   51.1  95.8
 06/29/14 1400   93.2    15  38.5  58.0   0.0   0.0     33  0.00  0.00   51.1  93.3
 06/29/14 1300   89.2    23  46.2  60.1   0.0   0.0     14  0.00  0.00   51.1  89.3
 06/29/14 1200   84.2    27  46.2  59.6   0.0   0.0     18  0.00  0.00   51.1  84.3
 06/29/14 1100   79.0    32  47.1  58.5   0.0   0.0      4  0.00  0.00   51.1  79.0
 06/29/14 1000   74.7    41  49.4  57.7   0.0   0.0      3  0.00  0.00   51.1  74.8
 06/29/14 0900   71.2    45  48.9  57.3   0.0   0.0      2  0.00  0.00   51.1  71.3
 06/29/14 0800   68.9    48  48.4  55.1   0.0   0.0      2  0.00  0.00   51.1  69.2
 06/29/14 0700   58.6    69  48.6  50.0   0.0   0.0      1  0.00  0.00   51.1  60.0
 06/29/14 0600   52.0    75  44.5  48.9   0.0   0.0      0  0.00  0.00   51.1  60.0
 06/29/14 0500   52.1    76  45.0  49.3   0.0   0.0      0  0.00  0.00   51.6  60.0
 06/29/14 0400   54.2    72  45.4  50.4   0.0   0.0      0  0.00  0.00   53.1  60.0
 06/29/14 0300   54.9    73  46.4  50.6   0.0   0.0      0  0.00  0.00   53.1  60.0
 06/29/14 0200   56.7    71  47.4  52.5   0.0   0.0      0  0.00  0.00   56.4  60.0
 06/29/14 0100   58.8    66  47.5  53.1   0.0   0.0      0  0.00  0.00   57.5  60.0
 06/29/14 0000   58.9    65  47.4  53.8   0.0   0.0      0  0.00  0.00   55.2  85.9
 06/28/14 2300   64.6    54  47.8  55.8   0.0   0.0      0  0.00  0.00   55.2  85.9
 06/28/14 2200   67.0    49  47.1  55.8   0.0   0.0      0  0.00  0.00   55.2  85.9
 06/28/14 2100   69.3    43  46.1  56.9   0.0   0.0      0  0.00  0.00   55.2  85.9
 06/28/14 2000   72.0    42  47.5  56.8   0.0   0.0      2  0.00  0.00   55.2  85.9
 06/28/14 1900   77.0    30  43.1  56.7   0.0   0.0      8  0.00  0.00   55.2  85.9
 06/28/14 1800   81.4    23  39.8  56.7   0.0   0.0     11  0.00  0.00   55.2  85.9
 06/28/14 1700   84.0    22  40.6  57.7   0.0   0.0     14  0.00  0.00   55.2  85.9
 06/28/14 1600   85.3    22  42.7  59.0   0.0   0.0     17  0.00  0.00   55.2  85.7
 06/28/14 1500   83.9    26  45.6  60.1   0.0   0.0     37  0.00  0.00   55.2  84.5
 06/28/14 1400   82.8    31  49.5  60.3   0.0   0.0     33  0.00  0.00   55.2  83.4
 06/28/14 1300   80.5    33  48.5  60.1   0.0   0.0     13  0.00  0.00   55.2  80.6
 06/28/14 1200   76.7    39  49.9  60.2   0.0   0.0     22  0.00  0.00   55.2  77.0
 06/28/14 1100   73.0    48  52.1  59.7   0.0   0.0      4  0.00  0.00   55.2  73.2
 06/28/14 1000   69.3    57  53.3  59.1   0.0   0.0      3  0.00  0.00   55.2  69.5
 06/28/14 0900   65.9    63  52.8  58.7   0.0   0.0      4  0.00  0.00   55.2  66.4
 06/28/14 0800   63.6    70  53.7  57.9   0.0   0.0      4  0.00  0.00   55.2  63.8
 06/28/14 0700   61.5    75  53.4  57.2   0.0   0.0      1  0.00  0.00   55.2  61.6
 06/28/14 0600   60.2    77  53.1  56.8   0.0   0.0      0  0.00  0.00   55.2  60.9
 06/28/14 0500   60.4    76  52.9  56.2   0.0   0.0      0  0.00  0.00   55.2  60.9
 06/28/14 0400   59.4    78  52.7  54.1   0.0   0.0      0  0.00  0.00   55.2  60.9
 06/28/14 0300   55.8    81  49.9  54.2   0.0   0.0      0  0.00  0.00   55.2  60.9
 06/28/14 0200   59.0    75  51.3  56.1   0.0   0.0      0  0.00  0.00   58.9  60.9
 06/28/14 0100   60.0    75  52.1  56.6   0.0   0.0      0  0.00  0.00   59.7  60.9
 06/28/14 0000   60.4    75  52.5  57.6   0.0   0.0      0  0.00  0.00   57.4  81.7
 06/27/14 2300   63.3    70  53.5  58.9   0.0   0.0      0  0.00  0.00   57.4  81.7
 06/27/14 2200   65.5    67  54.3  59.9   0.0   0.0      0  0.00  0.00   57.4  81.7
 06/27/14 2100   68.0    61  54.1  60.4   0.0   0.0      0  0.00  0.00   57.4  81.7
 06/27/14 2000   70.8    55  53.8  61.1   0.0   0.0      2  0.00  0.00   57.4  81.7
 06/27/14 1900   75.5    45  52.9  62.0   0.0   0.0      8  0.00  0.00   57.4  81.7
 06/27/14 1800   77.5    44  54.2  62.2   0.0   0.0     11  0.00  0.00   57.4  81.7
 06/27/14 1700   80.1    38  52.0  61.5   0.0   0.0     15  0.00  0.00   57.4  81.7
 06/27/14 1600   81.4    36  51.7  62.1   0.0   0.0     18  0.00  0.00   57.4  81.7
 06/27/14 1500   79.6    41  53.7  63.0   0.0   0.0     43  0.00  0.00   57.4  81.3
 06/27/14 1400   79.8    42  54.7  63.6   0.0   0.0     34  0.00  0.00   57.4  80.6
 06/27/14 1300   79.0    44  55.1  63.3   0.0   0.0     17  0.00  0.00   57.4  80.3
 06/27/14 1200   77.1    47  55.2  62.4   0.0   0.0     13  0.00  0.00   57.4  78.2
 06/27/14 1100   76.1    45  53.3  60.9   0.0   0.0      5  0.00  0.00   57.4  76.7
 06/27/14 1000   73.0    48  52.0  59.4   0.0   0.0      3  0.00  0.00   57.4  73.3
 06/27/14 0900   70.4    49  50.3  58.1   0.0   0.0      3  0.00  0.00   57.4  70.5
 06/27/14 0800   66.6    58  51.5  57.6   0.0   0.0      3  0.00  0.00   57.4  67.2
 06/27/14 0700   62.9    67  51.8  56.8   0.0   0.0      1  0.00  0.00   57.4  63.1
 06/27/14 0600   62.4    67  51.4  56.5   0.0   0.0      0  0.00  0.00   57.4  62.7
 06/27/14 0500   61.2    71  51.7  56.0   0.0   0.0      0  0.00  0.00   57.4  62.7
 06/27/14 0400   58.1    78  51.3  55.3   0.0   0.0      0  0.00  0.00   57.4  62.7
 06/27/14 0300   59.6    75  51.7  56.7   0.0   0.0      0  0.00  0.00   59.5  62.7
 06/27/14 0200   62.4    70  52.4  57.1   0.0   0.0      0  0.00  0.00   61.6  62.7
 06/27/14 0100   62.3    70  52.4  57.0   0.0   0.0      0  0.00  0.00   61.6  62.7
 06/27/14 0000   62.0    70  52.2  56.9   0.0   0.0      0  0.00  0.00   58.4  78.6
 06/26/14 2300   61.6    71  52.3  57.0   0.0   0.0      0  0.00  0.00   58.4  78.6
 06/26/14 2200   62.1    70  52.1  57.2   0.0   0.0      0  0.00  0.00   58.4  78.6
 06/26/14 2100   64.3    65  52.1  58.3   0.0   0.0      0  0.00  0.00   58.4  78.6
 06/26/14 2000   68.2    57  52.4  59.8   0.0   0.0      3  0.00  0.00   58.4  78.6
 06/26/14 1900   73.3    48  52.5  60.6   0.0   0.0      8  0.00  0.00   58.4  78.6
 06/26/14 1800   75.8    43  51.6  60.8   0.0   0.0     12  0.00  0.00   58.4  78.6
 06/26/14 1700   77.0    42  52.0  61.3   0.0   0.0     17  0.00  0.00   58.4  78.6
 06/26/14 1600   77.5    43  53.0  60.9   0.0   0.0     22  0.00  0.00   58.4  78.6
 06/26/14 1500   77.9    39  50.7  60.0   0.0   0.0     54  0.00  0.00   58.4  78.2
 06/26/14 1400   75.0    43  50.7  59.2   0.0   0.0     23  0.00  0.00   58.4  75.3
 06/26/14 1300   74.1    41  49.1  58.8   0.0   0.0     20  0.00  0.00   58.4  74.9
 06/26/14 1200   70.5    49  50.3  58.1   0.0   0.0     18  0.00  0.00   58.4  70.9
 06/26/14 1100   67.7    52  49.4  57.9   0.0   0.0     14  0.00  0.00   58.4  70.2
 06/26/14 1000   66.9    56  50.8  57.4   0.0   0.0     11  0.00  0.00   58.4  67.8
 06/26/14 0900   63.2    62  50.2  56.1   0.0   0.0      6  0.00  0.00   58.4  64.9
 06/26/14 0800   60.6    68  50.2  56.1   0.0   0.0      3  0.00  0.00   58.4  62.9
 06/26/14 0700   59.0    80  52.8  55.8   0.0   0.0      0  0.00  0.00   58.8  62.9
 06/26/14 0600   59.2    75  51.2  55.5   0.0   0.0      0  0.00  0.00   59.0  62.9
 06/26/14 0500   60.1    72  51.2  55.8   0.0   0.0      0  0.00  0.00   59.6  62.9
 06/26/14 0400   60.0    73  51.3  55.9   0.0   0.0      0  0.00  0.00   59.8  62.9
 06/26/14 0300   60.3    72  51.4  56.1   0.0   0.0      0  0.00  0.00   59.8  62.9
 06/26/14 0200   60.2    75  52.2  56.5   0.0   0.0      0  0.00  0.00   59.9  62.9
 06/26/14 0100   61.5    71  51.9  57.1   0.0   0.0      0  0.00  0.00   61.3  62.9
 06/26/14 0000   62.7    70  52.6  58.1   0.0   0.0      0  0.00  0.00  -55.0  77.3
 06/25/14 2300   63.0    73  54.1  58.5   0.0   0.0      0  0.00  0.00  -55.0  77.3
 06/25/14 2200   64.3    70  54.2  60.1   0.0   0.0      0  0.00  0.00  -55.0  77.3
 06/25/14 2100   67.9    62  54.6  60.5   0.0   0.0      0  0.00  0.00  -55.0  77.3
 06/25/14 2000   69.1    59  54.4  60.2   0.0   0.0      3  0.00  0.00  -55.0  77.3
 06/25/14 1900   70.3    54  52.8  60.2   0.0   0.0     10  0.00  0.00  -55.0  77.3
 06/25/14 1800   74.1    44  50.9  60.8   0.0   0.0     16  0.00  0.00  -55.0  77.3
 06/25/14 1700   76.2    44  53.0  61.1   0.0   0.0     21  0.00  0.00  -55.0  77.3
 06/25/14 1600   74.9    46  52.6  61.2   0.0   0.0     26  0.00  0.00  -55.0  77.3
 06/25/14 1500   75.3    49  54.6  62.4   0.0   0.0     50  0.00  0.00  -55.0  77.3
 06/25/14 1400   76.2    48  55.0  62.0   0.0   0.0     25  0.00  0.00  -55.0  77.3
 06/25/14 1300   75.8    47  54.4  61.7   0.0   0.0     37  0.00  0.00  -55.0  76.3
 06/25/14 1200   70.3    56  54.1  60.4   0.0   0.0     23  0.00  0.00  -55.0  70.8
 06/25/14 1100   69.0    58  53.8  60.1   0.0   0.0     24  0.00  0.00  -55.0  70.0
 06/09/14 1600  -27.9    11 -65.3 -29.8   0.0   0.0  -9999  0.00  0.00  -28.1  69.0